createdAt,value
2022-09-21T00:00:45.324Z,8.10
2022-09-21T00:03:30.627Z,8.00
2022-09-21T00:06:18.884Z,7.90
2022-09-21T00:09:05.304Z,8.00
2022-09-21T00:11:53.244Z,7.90
2022-09-21T00:14:40.697Z,7.90
2022-09-21T00:17:26.387Z,7.80
2022-09-21T00:20:12.122Z,8.00
2022-09-21T00:22:57.899Z,8.10
2022-09-21T00:25:43.268Z,8.10
2022-09-21T00:28:28.653Z,8.10
2022-09-21T00:31:18.232Z,7.90
2022-09-21T00:34:07.575Z,7.80
2022-09-21T00:36:53.233Z,7.60
2022-09-21T00:39:38.659Z,7.50
2022-09-21T00:42:33.861Z,7.40
2022-09-21T00:45:22.027Z,7.30
2022-09-21T00:48:07.676Z,7.30
2022-09-21T00:50:55.456Z,7.30
2022-09-21T00:53:40.789Z,7.30
2022-09-21T00:56:26.836Z,7.30
2022-09-21T00:59:18.944Z,7.30
2022-09-21T01:02:07.174Z,7.30
2022-09-21T01:04:56.606Z,7.40
2022-09-21T01:07:46.229Z,7.40
2022-09-21T01:10:46.767Z,7.40
2022-09-21T01:13:54.783Z,7.30
2022-09-21T01:17:29.387Z,7.30
2022-09-21T01:20:17.720Z,7.20
2022-09-21T01:23:18.235Z,7.10
2022-09-21T01:26:14.252Z,7.20
2022-09-21T01:29:16.886Z,7.20
2022-09-21T01:32:12.836Z,7.20
2022-09-21T01:35:19.613Z,7.20
2022-09-21T01:38:19.842Z,7.20
2022-09-21T01:41:08.389Z,7.20
2022-09-21T01:43:57.767Z,7.20
2022-09-21T01:46:45.726Z,7.20
2022-09-21T01:49:36.675Z,7.10
2022-09-21T01:52:37.328Z,6.90
2022-09-21T01:55:40.223Z,6.90
2022-09-21T01:59:07.012Z,6.80
2022-09-21T02:01:58.798Z,6.80
2022-09-21T02:04:44.171Z,6.70
2022-09-21T02:07:30.656Z,6.60
2022-09-21T02:10:22.255Z,6.60
2022-09-21T02:13:09.608Z,6.60
2022-09-21T02:16:39.220Z,6.60
2022-09-21T02:19:50.729Z,6.50
2022-09-21T02:22:49.473Z,6.50
2022-09-21T02:25:59.221Z,6.50
2022-09-21T02:29:01.605Z,6.40
2022-09-21T02:31:59.611Z,6.30
2022-09-21T02:34:49.688Z,6.20
2022-09-21T02:37:42.123Z,6.10
2022-09-21T02:40:40.614Z,6.10
2022-09-21T02:43:33.570Z,6.00
2022-09-21T02:46:26.423Z,5.90
2022-09-21T02:49:18.013Z,5.80
2022-09-21T02:52:11.636Z,5.90
2022-09-21T02:54:57.486Z,5.80
2022-09-21T02:57:43.892Z,5.80
2022-09-21T03:00:29.625Z,5.70
2022-09-21T03:03:17.647Z,5.60
2022-09-21T03:06:03.577Z,5.60
2022-09-21T03:08:49.077Z,5.60
2022-09-21T03:11:36.161Z,5.60
2022-09-21T03:14:22.132Z,5.50
2022-09-21T03:17:08.047Z,5.50
2022-09-21T03:19:55.092Z,5.40
2022-09-21T03:22:40.386Z,5.40
2022-09-21T03:25:27.036Z,5.40
2022-09-21T03:28:13.805Z,5.40
2022-09-21T03:30:59.044Z,5.40
2022-09-21T03:33:44.542Z,5.60
2022-09-21T03:36:29.809Z,5.70
2022-09-21T03:39:15.191Z,5.60
2022-09-21T03:42:02.810Z,5.50
2022-09-21T03:44:48.426Z,5.70
2022-09-21T03:47:34.089Z,5.90
2022-09-21T03:50:19.930Z,5.70
2022-09-21T03:53:05.727Z,5.70
2022-09-21T03:55:51.036Z,5.50
2022-09-21T03:58:36.304Z,5.40
2022-09-21T04:01:21.545Z,5.20
2022-09-21T04:04:07.331Z,5.10
2022-09-21T04:06:52.646Z,5.10
2022-09-21T04:09:38.428Z,4.90
2022-09-21T04:12:23.725Z,4.90
2022-09-21T04:15:13.081Z,4.80
2022-09-21T04:17:59.204Z,4.80
2022-09-21T04:20:44.583Z,4.80
2022-09-21T04:23:29.860Z,4.70
2022-09-21T04:26:25.258Z,4.60
2022-09-21T04:29:11.324Z,4.70
2022-09-21T04:31:58.201Z,4.70
2022-09-21T04:34:43.627Z,4.70
2022-09-21T04:37:29.262Z,4.70
2022-09-21T04:40:14.544Z,4.80
2022-09-21T04:43:00.262Z,4.70
2022-09-21T04:45:45.599Z,4.70
2022-09-21T04:48:31.269Z,4.70
2022-09-21T04:51:17.403Z,4.70
2022-09-21T04:54:02.974Z,4.80
2022-09-21T04:56:48.422Z,4.70
2022-09-21T04:59:33.598Z,4.70
2022-09-21T05:02:19.275Z,4.70
2022-09-21T05:05:04.794Z,4.70
2022-09-21T05:07:49.858Z,4.70
2022-09-21T05:10:35.797Z,4.70
2022-09-21T05:13:21.239Z,4.80
2022-09-21T05:16:07.182Z,4.90
2022-09-21T05:18:56.975Z,4.90
2022-09-21T05:21:42.282Z,4.90
2022-09-21T05:24:27.835Z,4.80
2022-09-21T05:27:13.510Z,4.90
2022-09-21T05:29:59.104Z,4.90
2022-09-21T05:32:49.334Z,4.90
2022-09-21T05:35:58.152Z,4.90
2022-09-21T05:38:44.002Z,4.80
2022-09-21T05:41:29.844Z,4.80
2022-09-21T05:44:15.497Z,4.80
2022-09-21T05:47:25.635Z,4.70
2022-09-21T05:50:26.296Z,4.70
2022-09-21T05:53:47.407Z,4.70
2022-09-21T05:56:44.727Z,4.80
2022-09-21T05:59:57.757Z,4.80
2022-09-21T06:03:27.128Z,4.80
2022-09-21T06:06:12.493Z,4.80
2022-09-21T06:08:58.195Z,4.80
2022-09-21T06:11:43.704Z,5.00
2022-09-21T06:14:29.168Z,5.10
2022-09-21T06:17:14.770Z,5.10
2022-09-21T06:20:00.205Z,5.10
2022-09-21T06:22:45.545Z,5.30
2022-09-21T06:25:31.082Z,5.40
2022-09-21T06:28:16.512Z,5.40
2022-09-21T06:31:02.158Z,5.50
2022-09-21T06:33:48.321Z,5.50
2022-09-21T06:36:33.910Z,5.40
2022-09-21T06:39:19.682Z,5.50
2022-09-21T06:42:04.961Z,5.50
2022-09-21T06:44:50.666Z,5.70
2022-09-21T06:47:36.128Z,5.70
2022-09-21T06:50:22.140Z,5.70
2022-09-21T06:53:09.389Z,5.80
2022-09-21T06:55:54.975Z,5.90
2022-09-21T06:58:40.502Z,6.00
2022-09-21T07:01:26.183Z,6.10
2022-09-21T07:04:11.570Z,6.00
2022-09-21T07:06:58.228Z,6.10
2022-09-21T07:12:51.763Z,6.30
2022-09-21T07:15:37.271Z,6.40
2022-09-21T07:18:22.757Z,6.50
2022-09-21T07:21:09.860Z,6.70
2022-09-21T07:23:55.021Z,6.80
2022-09-21T07:26:40.690Z,6.90
2022-09-21T07:29:26.202Z,7.10
2022-09-21T07:32:13.845Z,7.10
2022-09-21T07:34:59.373Z,7.20
2022-09-21T07:37:45.124Z,7.30
2022-09-21T07:40:31.456Z,7.40
2022-09-21T07:43:18.057Z,7.50
2022-09-21T07:46:03.557Z,7.60
2022-09-21T07:48:48.989Z,7.70
2022-09-21T07:51:34.824Z,7.80
2022-09-21T07:54:19.963Z,7.90
2022-09-21T07:57:24.193Z,8.00
2022-09-21T08:00:10.226Z,8.10
2022-09-21T08:02:55.562Z,8.20
2022-09-21T08:05:41.206Z,8.40
2022-09-21T08:08:26.877Z,8.50
2022-09-21T08:11:12.388Z,8.60
2022-09-21T08:14:01.418Z,8.80
2022-09-21T08:16:48.286Z,8.90
2022-09-21T08:19:34.580Z,9.00
2022-09-21T08:22:23.002Z,9.20
2022-09-21T08:25:08.592Z,9.30
2022-09-21T08:27:58.553Z,9.50
2022-09-21T08:30:43.636Z,9.70
2022-09-21T08:33:29.981Z,9.80
2022-09-21T08:36:15.663Z,10.00
2022-09-21T08:39:01.142Z,10.20
2022-09-21T08:42:09.845Z,10.40
2022-09-21T08:45:07.583Z,10.60
2022-09-21T08:47:58.106Z,10.80
2022-09-21T08:50:53.158Z,11.10
2022-09-21T08:53:43.155Z,11.30
2022-09-21T08:56:47.057Z,11.50
2022-09-21T08:59:35.342Z,11.70
2022-09-21T09:02:47.893Z,11.90
2022-09-21T09:05:48.373Z,12.10
2022-09-21T09:08:48.840Z,12.40
2022-09-21T09:11:37.201Z,12.80
2022-09-21T09:14:55.924Z,13.10
2022-09-21T09:18:12.251Z,13.30
2022-09-21T09:20:58.724Z,13.70
2022-09-21T09:23:51.240Z,13.70
2022-09-21T09:26:50.791Z,13.80
2022-09-21T09:29:54.035Z,13.90
2022-09-21T09:32:54.159Z,14.20
2022-09-21T09:35:45.740Z,14.40
2022-09-21T09:38:45.314Z,14.60
2022-09-21T09:41:39.613Z,14.60
2022-09-21T09:44:53.406Z,14.70
2022-09-21T09:47:50.702Z,14.90
2022-09-21T09:50:39.562Z,15.10
2022-09-21T09:53:26.881Z,15.10
2022-09-21T09:56:14.816Z,15.20
2022-09-21T09:59:08.151Z,15.50
2022-09-21T10:02:03.312Z,15.60
2022-09-21T10:05:03.755Z,15.60
2022-09-21T10:07:49.596Z,15.80
2022-09-21T10:10:36.972Z,16.20
2022-09-21T10:13:33.848Z,16.40
2022-09-21T10:16:23.223Z,16.60
2022-09-21T10:19:25.630Z,16.70
2022-09-21T10:22:20.596Z,16.60
2022-09-21T10:25:08.347Z,16.70
2022-09-21T10:27:55.891Z,16.80
2022-09-21T10:30:41.858Z,17.00
2022-09-21T10:33:27.603Z,17.00
2022-09-21T10:36:27.239Z,16.90
2022-09-21T10:39:24.308Z,16.60
2022-09-21T10:42:16.400Z,16.60
2022-09-21T10:45:24.058Z,16.50
2022-09-21T10:48:16.529Z,16.70
2022-09-21T10:51:02.775Z,16.80
2022-09-21T10:53:53.731Z,16.90
2022-09-21T10:57:00.877Z,16.90
2022-09-21T10:59:46.565Z,16.80
2022-09-21T11:02:31.683Z,16.90
2022-09-21T11:05:41.545Z,17.10
2022-09-21T11:08:40.307Z,17.20
2022-09-21T11:11:34.709Z,17.30
2022-09-21T11:14:49.928Z,17.20
2022-09-21T11:17:49.128Z,17.40
2022-09-21T11:20:48.678Z,17.30
2022-09-21T11:24:03.210Z,17.50
2022-09-21T11:26:54.629Z,17.60
2022-09-21T11:30:04.140Z,17.50
2022-09-21T11:33:24.868Z,17.10
2022-09-21T11:36:46.101Z,17.00
2022-09-21T11:39:54.828Z,17.40
2022-09-21T11:43:02.175Z,17.40
2022-09-21T11:46:00.991Z,17.30
2022-09-21T11:49:08.413Z,17.30
2022-09-21T11:52:21.603Z,17.30
2022-09-21T11:55:37.900Z,17.50
2022-09-21T11:58:38.923Z,17.90
2022-09-21T12:01:50.090Z,18.30
2022-09-21T12:04:49.869Z,18.40
2022-09-21T12:08:04.294Z,18.20
2022-09-21T12:11:16.869Z,18.00
2022-09-21T12:14:34.664Z,18.00
2022-09-21T12:17:45.246Z,18.20
2022-09-21T12:20:54.518Z,18.20
2022-09-21T12:24:01.502Z,17.80
2022-09-21T12:26:55.693Z,17.30
2022-09-21T12:29:50.792Z,17.20
2022-09-21T12:32:57.785Z,17.30
2022-09-21T12:35:59.092Z,17.50
2022-09-21T12:38:54.804Z,17.50
2022-09-21T12:41:49.795Z,17.50
2022-09-21T12:44:56.402Z,17.40
2022-09-21T12:47:55.250Z,17.20
2022-09-21T12:50:50.070Z,17.30
2022-09-21T12:53:38.733Z,17.40
2022-09-21T12:56:24.102Z,17.30
2022-09-21T12:59:31.595Z,17.40
2022-09-21T13:02:22.603Z,17.50
2022-09-21T13:05:39.371Z,17.80
2022-09-21T13:08:36.760Z,17.70
2022-09-21T13:11:23.447Z,17.70
2022-09-21T13:14:12.140Z,17.50
2022-09-21T13:17:01.079Z,17.20
2022-09-21T13:20:03.754Z,17.40
2022-09-21T13:22:49.323Z,17.40
2022-09-21T13:25:37.645Z,17.50
2022-09-21T13:28:23.887Z,17.40
2022-09-21T13:31:41.292Z,17.60
2022-09-21T13:34:35.970Z,17.60
2022-09-21T13:37:28.545Z,17.50
2022-09-21T13:40:13.694Z,17.50
2022-09-21T13:43:19.156Z,17.60
2022-09-21T13:46:04.461Z,17.60
2022-09-21T13:48:53.999Z,17.70
2022-09-21T13:52:03.481Z,17.80
2022-09-21T13:55:01.434Z,17.80
2022-09-21T13:57:50.507Z,17.80
2022-09-21T14:00:51.639Z,17.80
2022-09-21T14:03:40.752Z,18.00
2022-09-21T14:06:35.728Z,17.80
2022-09-21T14:09:38.182Z,17.70
2022-09-21T14:12:26.160Z,17.50
2022-09-21T14:15:18.010Z,17.60
2022-09-21T14:18:17.411Z,17.90
2022-09-21T14:21:17.602Z,18.00
2022-09-21T14:24:06.495Z,17.90
2022-09-21T14:27:03.662Z,17.90
2022-09-21T14:29:56.299Z,18.10
2022-09-21T14:33:15.193Z,18.20
2022-09-21T14:36:07.549Z,18.00
2022-09-21T14:39:00.402Z,18.10
2022-09-21T14:41:48.856Z,18.20
2022-09-21T14:44:35.382Z,18.30
2022-09-21T14:47:42.019Z,18.10
2022-09-21T14:50:47.128Z,17.70
2022-09-21T14:53:48.390Z,17.70
2022-09-21T14:56:55.593Z,18.00
2022-09-21T15:00:07.363Z,18.00
2022-09-21T15:03:11.699Z,18.10
2022-09-21T15:06:56.666Z,18.30
2022-09-21T15:10:22.142Z,18.40
2022-09-21T15:13:19.649Z,18.80
2022-09-21T15:16:17.801Z,18.60
2022-09-21T15:19:13.937Z,18.30
2022-09-21T15:22:20.567Z,18.10
2022-09-21T15:25:13.179Z,18.10
2022-09-21T15:28:00.141Z,17.90
2022-09-21T15:30:46.604Z,18.00
2022-09-21T15:33:33.203Z,17.90
2022-09-21T15:36:28.315Z,18.00
2022-09-21T15:39:30.838Z,18.10
2022-09-21T15:42:19.641Z,18.20
2022-09-21T15:45:17.843Z,18.30
2022-09-21T15:48:06.993Z,18.60
2022-09-21T15:50:59.184Z,18.60
2022-09-21T15:53:49.186Z,18.60
2022-09-21T15:56:40.509Z,18.50
2022-09-21T15:59:27.136Z,18.30
2022-09-21T16:02:19.631Z,17.80
2022-09-21T16:05:08.057Z,17.70
2022-09-21T16:08:24.113Z,17.60
2022-09-21T16:11:26.403Z,17.40
2022-09-21T16:14:34.965Z,17.30
2022-09-21T16:17:24.026Z,17.30
2022-09-21T16:20:23.365Z,17.20
2022-09-21T16:23:23.204Z,17.00
2022-09-21T16:26:25.801Z,17.00
2022-09-21T16:29:20.851Z,17.00
2022-09-21T16:32:18.389Z,16.90
2022-09-21T16:35:29.179Z,16.70
2022-09-21T16:38:16.673Z,16.70
2022-09-21T16:41:02.664Z,16.70
2022-09-21T16:43:51.041Z,16.60
2022-09-21T16:46:36.359Z,16.50
2022-09-21T16:49:26.807Z,16.40
2022-09-21T16:52:16.943Z,16.30
2022-09-21T16:55:02.157Z,15.90
2022-09-21T16:57:48.901Z,15.60
2022-09-21T17:00:39.155Z,15.40
2022-09-21T17:03:24.768Z,15.30
2022-09-21T17:06:18.869Z,15.20
2022-09-21T17:09:28.950Z,15.00
2022-09-21T17:12:17.861Z,14.90
2022-09-21T17:15:04.681Z,14.80
2022-09-21T17:17:50.451Z,14.80
2022-09-21T17:20:42.139Z,14.70
2022-09-21T17:23:29.255Z,14.60
2022-09-21T17:26:18.018Z,14.40
2022-09-21T17:29:05.757Z,14.20
2022-09-21T17:31:53.627Z,14.20
2022-09-21T17:34:39.404Z,14.00
2022-09-21T17:37:25.327Z,13.90
2022-09-21T17:40:12.215Z,13.80
2022-09-21T17:43:13.581Z,13.80
2022-09-21T17:46:27.842Z,13.80
2022-09-21T17:49:13.250Z,13.70
2022-09-21T17:52:17.714Z,13.70
2022-09-21T17:55:08.453Z,13.60
2022-09-21T17:58:27.792Z,13.50
2022-09-21T18:01:34.955Z,13.40
2022-09-21T18:04:20.388Z,13.40
2022-09-21T18:07:05.960Z,13.40
2022-09-21T18:09:51.886Z,13.30
2022-09-21T18:12:59.180Z,13.20
2022-09-21T18:16:03.726Z,13.20
2022-09-21T18:19:24.701Z,13.10
2022-09-21T18:22:51.631Z,13.10
2022-09-21T18:25:47.775Z,12.90
2022-09-21T18:28:52.435Z,12.80
2022-09-21T18:31:56.443Z,12.70
2022-09-21T18:35:08.738Z,12.80
2022-09-21T18:38:17.628Z,12.70
2022-09-21T18:41:20.351Z,12.50
2022-09-21T18:44:11.712Z,12.30
2022-09-21T18:47:03.259Z,12.30
2022-09-21T18:50:01.839Z,12.20
2022-09-21T18:53:09.330Z,12.20
2022-09-21T18:55:54.760Z,12.10
2022-09-21T18:58:42.640Z,12.00
2022-09-21T19:01:32.975Z,12.00
2022-09-21T19:04:19.310Z,12.00
2022-09-21T19:07:30.321Z,11.90
2022-09-21T19:10:25.624Z,11.80
2022-09-21T19:13:49.537Z,11.60
2022-09-21T19:16:57.206Z,11.60
2022-09-21T19:20:04.657Z,11.40
2022-09-21T19:23:28.163Z,11.20
2022-09-21T19:26:34.489Z,11.30
2022-09-21T19:29:35.329Z,11.10
2022-09-21T19:32:35.799Z,10.90
2022-09-21T19:35:28.840Z,10.70
2022-09-21T19:38:14.405Z,10.80
2022-09-21T19:41:04.613Z,10.70
2022-09-21T19:44:08.058Z,10.70
2022-09-21T19:47:29.379Z,10.50
2022-09-21T19:50:41.027Z,10.50
2022-09-21T19:53:45.469Z,10.40
2022-09-21T19:56:55.352Z,10.30
2022-09-21T19:59:43.813Z,10.30
2022-09-21T20:02:49.087Z,10.30
2022-09-21T20:05:45.699Z,10.20
2022-09-21T20:08:45.234Z,10.10
2022-09-21T20:11:50.499Z,10.10
2022-09-21T20:14:51.532Z,10.00
2022-09-21T20:17:53.434Z,9.80
2022-09-21T20:20:38.802Z,9.80
2022-09-21T20:23:24.606Z,9.70
2022-09-21T20:26:24.615Z,9.60
2022-09-21T20:29:10.454Z,9.50
2022-09-21T20:31:56.363Z,9.40
2022-09-21T20:34:41.823Z,9.30
2022-09-21T20:37:27.388Z,9.20
2022-09-21T20:40:14.690Z,9.10
2022-09-21T20:43:01.297Z,9.00
2022-09-21T20:45:49.258Z,8.90
2022-09-21T20:48:36.064Z,8.90
2022-09-21T20:51:21.660Z,8.80
2022-09-21T20:54:07.557Z,8.70
2022-09-21T20:56:53.141Z,8.60
2022-09-21T20:59:39.576Z,8.50
2022-09-21T21:02:25.104Z,8.50
2022-09-21T21:05:11.418Z,8.40
2022-09-21T21:07:57.500Z,8.50
2022-09-21T21:10:47.159Z,8.40
2022-09-21T21:13:33.270Z,8.30
2022-09-21T21:16:18.843Z,8.30
2022-09-21T21:19:04.291Z,8.20
2022-09-21T21:21:49.824Z,8.10
2022-09-21T21:24:41.553Z,8.10
2022-09-21T21:27:28.021Z,8.00
2022-09-21T21:30:13.731Z,7.90
2022-09-21T21:32:59.244Z,7.90
2022-09-21T21:35:44.683Z,7.80
2022-09-21T21:38:30.289Z,7.80
2022-09-21T21:41:16.155Z,7.80
2022-09-21T21:44:02.256Z,7.70
2022-09-21T21:46:48.065Z,7.70
2022-09-21T21:49:33.792Z,7.70
2022-09-21T21:52:19.348Z,7.60
2022-09-21T21:55:06.074Z,7.60
2022-09-21T21:57:52.031Z,7.60
2022-09-21T22:00:37.542Z,7.60
2022-09-21T22:03:23.366Z,7.60
2022-09-21T22:06:10.528Z,7.60
2022-09-21T22:08:56.763Z,7.60
2022-09-21T22:11:42.592Z,7.60
2022-09-21T22:14:28.316Z,7.50
2022-09-21T22:17:14.411Z,7.50
2022-09-21T22:20:00.294Z,7.40
2022-09-21T22:22:45.887Z,7.40
2022-09-21T22:25:31.424Z,7.30
2022-09-21T22:28:17.017Z,7.20
2022-09-21T22:31:04.469Z,7.20
2022-09-21T22:33:50.201Z,7.20
2022-09-21T22:36:37.246Z,7.10
2022-09-21T22:39:22.605Z,7.10
2022-09-21T22:42:11.032Z,7.00
2022-09-21T22:44:56.583Z,6.90
2022-09-21T22:47:41.931Z,6.90
2022-09-21T22:50:27.565Z,6.80
2022-09-21T22:53:13.342Z,6.80
2022-09-21T22:56:06.130Z,6.70
2022-09-21T22:58:54.446Z,6.70
2022-09-21T23:01:41.395Z,6.70
2022-09-21T23:04:27.187Z,6.70
2022-09-21T23:07:12.672Z,6.60
2022-09-21T23:09:58.233Z,6.60
2022-09-21T23:12:43.645Z,6.60
2022-09-21T23:15:29.324Z,6.50
2022-09-21T23:18:14.794Z,6.40
2022-09-21T23:21:02.523Z,6.30
2022-09-21T23:23:48.679Z,6.30
2022-09-21T23:26:34.961Z,6.30
2022-09-21T23:29:20.498Z,6.30
2022-09-21T23:32:06.430Z,6.30
2022-09-21T23:34:52.254Z,6.30
2022-09-21T23:37:37.899Z,6.20
2022-09-21T23:40:23.413Z,6.20
2022-09-21T23:43:08.810Z,6.30
2022-09-21T23:45:54.543Z,6.30
2022-09-21T23:48:40.612Z,6.30
2022-09-21T23:51:26.651Z,6.30
2022-09-21T23:54:12.579Z,6.20
2022-09-21T23:56:57.990Z,6.20
2022-09-21T23:59:43.674Z,6.10
